Time;durP1;ratioP1;P1;durP2;ratioP2;P2;SDS_P1;SDS_P2;PMS_P1;PMS_P2;Temp;Humidity;BMP_temperature;BMP_pressure;BME280_temperature;BME280_humidity;BME280_pressure;Samples;Min_cycle;Max_cycle;Signal;HPM_P1;HPM_P2
2023/04/24 00:02:15;;;;;;;1.90;1.60;;;;;;;;;;4994568;28;25071;-75
2023/04/24 00:04:44;;;;;;;2.15;1.30;;;;;;;;;;4997561;28;25073;-75
2023/04/24 00:07:10;;;;;;;1.33;1.23;;;;;;;;;;5004996;28;25085;-76
2023/04/24 00:09:36;;;;;;;2.88;1.20;;;;;;;;;;4999843;28;25062;-77
2023/04/24 00:12:04;;;;;;;3.60;1.38;;;;;;;;;;4991219;28;25083;-78
2023/04/24 00:14:30;;;;;;;4.03;1.40;;;;;;;;;;4994121;28;25055;-74
2023/04/24 00:16:56;;;;;;;3.20;1.75;;;;;;;;;;4989104;28;25052;-76
2023/04/24 00:19:22;;;;;;;2.70;2.10;;;;;;;;;;4993152;28;25089;-76
2023/04/24 00:21:51;;;;;;;5.55;2.00;;;;;;;;;;4987869;28;25063;-76
2023/04/24 00:24:18;;;;;;;7.70;3.83;;;;;;;;;;4988964;28;25067;-75
2023/04/24 00:26:44;;;;;;;5.10;3.25;;;;;;;;;;5011193;28;25065;-75
2023/04/24 00:29:10;;;;;;;6.45;4.32;;;;;;;;;;4999692;28;25069;-75
2023/04/24 00:31:36;;;;;;;7.13;5.18;;;;;;;;;;4995171;28;25072;-76
2023/04/24 00:34:02;;;;;;;10.73;4.88;;;;;;;;;;4999833;28;25051;-76
2023/04/24 00:36:28;;;;;;;13.52;5.85;;;;;;;;;;4992998;28;25103;-77
2023/04/24 00:38:55;;;;;;;12.13;5.82;;;;;;;;;;4993941;28;25054;-75
2023/04/24 00:41:22;;;;;;;9.10;5.45;;;;;;;;;;5005600;28;25059;-76
2023/04/24 00:43:48;;;;;;;8.88;5.65;;;;;;;;;;4991107;28;25079;-76
2023/04/24 00:46:14;;;;;;;13.13;6.00;;;;;;;;;;4989938;28;25076;-75
2023/04/24 00:48:40;;;;;;;10.60;5.93;;;;;;;;;;4992489;28;25084;-73
2023/04/24 00:51:06;;;;;;;11.38;7.03;;;;;;;;;;4992599;28;25069;-74
2023/04/24 00:53:32;;;;;;;10.02;6.38;;;;;;;;;;4996766;28;25082;-73
2023/04/24 00:55:58;;;;;;;13.40;5.25;;;;;;;;;;4988748;28;25083;-74
2023/04/24 00:58:25;;;;;;;9.30;5.45;;;;;;;;;;4991412;28;25062;-75
2023/04/24 01:00:52;;;;;;;11.73;6.65;;;;;;;;;;5016194;28;25065;-76
2023/04/24 01:03:20;;;;;;;13.43;6.80;;;;;;;;;;4995916;28;25067;-77
2023/04/24 01:05:46;;;;;;;13.05;7.10;;;;;;;;;;5015232;28;25126;-75
2023/04/24 01:08:12;;;;;;;14.95;8.07;;;;;;;;;;4993809;28;25071;-75
2023/04/24 01:10:39;;;;;;;15.40;8.52;;;;;;;;;;4992081;28;25075;-73
2023/04/24 01:13:05;;;;;;;11.13;5.75;;;;;;;;;;5003606;28;25079;-72
2023/04/24 01:15:31;;;;;;;8.38;5.15;;;;;;;;;;4992805;28;25052;-75
2023/04/24 01:17:57;;;;;;;9.70;5.50;;;;;;;;;;4993755;28;25087;-71
2023/04/24 01:20:24;;;;;;;10.45;5.05;;;;;;;;;;4995842;28;25053;-72
2023/04/24 01:22:50;;;;;;;9.35;5.20;;;;;;;;;;4985159;28;25070;-74
2023/04/24 01:25:16;;;;;;;9.15;4.80;;;;;;;;;;4993678;28;25104;-73
2023/04/24 01:27:42;;;;;;;10.27;6.20;;;;;;;;;;4984332;28;25091;-73
2023/04/24 01:30:09;;;;;;;13.07;6.60;;;;;;;;;;5004096;28;25057;-73
2023/04/24 01:32:35;;;;;;;13.05;6.63;;;;;;;;;;4998700;28;25062;-78
2023/04/24 01:35:02;;;;;;;12.90;7.03;;;;;;;;;;5001153;28;25066;-80
2023/04/24 01:37:28;;;;;;;15.27;7.85;;;;;;;;;;5015094;28;25056;-76
2023/04/24 01:39:54;;;;;;;12.57;8.10;;;;;;;;;;5004177;28;25049;-78
2023/04/24 01:42:20;;;;;;;16.73;7.90;;;;;;;;;;4996653;28;25069;-76
2023/04/24 01:44:46;;;;;;;13.30;7.60;;;;;;;;;;5003954;28;25053;-78
2023/04/24 01:47:12;;;;;;;14.43;8.18;;;;;;;;;;5013522;28;25080;-76
2023/04/24 01:49:39;;;;;;;18.35;9.57;;;;;;;;;;5010077;28;25079;-79
2023/04/24 01:52:05;;;;;;;15.63;9.68;;;;;;;;;;4995444;28;25079;-79
2023/04/24 01:54:31;;;;;;;16.63;9.10;;;;;;;;;;4997501;28;25097;-76
2023/04/24 01:56:57;;;;;;;19.67;9.10;;;;;;;;;;4986598;28;25088;-78
2023/04/24 01:59:24;;;;;;;19.23;10.43;;;;;;;;;;4982281;28;25080;-78
2023/04/24 02:01:49;;;;;;;21.42;11.02;;;;;;;;;;4990731;28;25082;-75
2023/04/24 02:04:15;;;;;;;19.13;10.40;;;;;;;;;;4977190;28;25083;-76
2023/04/24 02:06:41;;;;;;;20.65;11.18;;;;;;;;;;4985139;28;25068;-75
2023/04/24 02:09:07;;;;;;;21.02;11.35;;;;;;;;;;4991712;28;25144;-76
2023/04/24 02:11:33;;;;;;;26.67;11.25;;;;;;;;;;4983993;28;25054;-75
2023/04/24 02:13:59;;;;;;;19.40;10.45;;;;;;;;;;4980853;28;25081;-75
2023/04/24 02:16:25;;;;;;;18.98;10.95;;;;;;;;;;4979326;28;25084;-76
2023/04/24 02:18:52;;;;;;;25.27;11.65;;;;;;;;;;4980887;28;25077;-76
2023/04/24 02:21:18;;;;;;;24.00;12.25;;;;;;;;;;4986866;28;25081;-76
2023/04/24 02:23:44;;;;;;;24.70;11.10;;;;;;;;;;4985266;28;25053;-75
2023/04/24 02:26:10;;;;;;;25.20;12.45;;;;;;;;;;4984975;28;25073;-76
2023/04/24 02:28:36;;;;;;;18.58;10.40;;;;;;;;;;4985394;28;25071;-76
2023/04/24 02:31:02;;;;;;;25.90;11.38;;;;;;;;;;4979293;28;25057;-77
2023/04/24 02:33:28;;;;;;;20.15;11.65;;;;;;;;;;4983285;28;25064;-75
2023/04/24 02:35:54;;;;;;;32.25;11.90;;;;;;;;;;4980996;28;25059;-77
2023/04/24 02:38:20;;;;;;;20.85;11.07;;;;;;;;;;4980519;28;25074;-77
2023/04/24 02:40:46;;;;;;;28.42;12.65;;;;;;;;;;4980061;28;25066;-77
2023/04/24 02:43:12;;;;;;;27.40;13.38;;;;;;;;;;4977968;28;25092;-75
2023/04/24 02:45:38;;;;;;;22.92;11.45;;;;;;;;;;4974243;28;25062;-75
2023/04/24 02:48:04;;;;;;;21.25;10.50;;;;;;;;;;4978328;28;25060;-76
2023/04/24 02:50:31;;;;;;;23.60;10.52;;;;;;;;;;4988223;28;25084;-76
2023/04/24 02:52:57;;;;;;;26.27;10.18;;;;;;;;;;4989198;28;25059;-75
2023/04/24 02:55:23;;;;;;;18.65;7.57;;;;;;;;;;4992610;28;25052;-74
2023/04/24 02:57:49;;;;;;;21.35;7.25;;;;;;;;;;4978029;28;25103;-77
2023/04/24 03:00:15;;;;;;;17.02;7.40;;;;;;;;;;4989062;28;25057;-73
2023/04/24 03:02:41;;;;;;;13.38;7.35;;;;;;;;;;4992660;28;25082;-74
2023/04/24 03:05:08;;;;;;;12.70;6.78;;;;;;;;;;4993561;28;25064;-74
2023/04/24 03:07:35;;;;;;;12.27;7.15;;;;;;;;;;4991616;28;25094;-77
2023/04/24 03:10:01;;;;;;;17.27;7.40;;;;;;;;;;5003742;28;25075;-77
2023/04/24 03:12:28;;;;;;;15.45;7.18;;;;;;;;;;4988667;28;25070;-75
2023/04/24 03:14:54;;;;;;;15.32;6.70;;;;;;;;;;4982867;28;25045;-73
2023/04/24 03:17:20;;;;;;;14.18;7.32;;;;;;;;;;4987847;28;25066;-74
2023/04/24 03:19:46;;;;;;;14.60;7.00;;;;;;;;;;5010661;28;25051;-76
2023/04/24 03:22:12;;;;;;;10.90;7.47;;;;;;;;;;4991276;28;25140;-74
2023/04/24 03:24:40;;;;;;;13.32;6.95;;;;;;;;;;4996644;28;25042;-77
2023/04/24 03:27:07;;;;;;;8.25;5.60;;;;;;;;;;4987998;28;25071;-77
2023/04/24 03:29:33;;;;;;;9.30;5.38;;;;;;;;;;4997004;28;25087;-74
2023/04/24 03:31:59;;;;;;;5.32;3.42;;;;;;;;;;4997394;28;25056;-75
2023/04/24 03:34:25;;;;;;;6.88;3.70;;;;;;;;;;5016150;28;25118;-75
2023/04/24 03:36:52;;;;;;;6.13;3.45;;;;;;;;;;4982730;28;25071;-75
2023/04/24 03:39:18;;;;;;;9.27;3.80;;;;;;;;;;4975974;28;25064;-75
2023/04/24 03:41:44;;;;;;;5.72;3.38;;;;;;;;;;4988421;28;25064;-74
2023/04/24 03:44:10;;;;;;;8.95;3.22;;;;;;;;;;4993851;28;25076;-75
2023/04/24 03:46:36;;;;;;;8.20;4.20;;;;;;;;;;4975513;28;25093;-74
2023/04/24 03:49:02;;;;;;;8.10;4.25;;;;;;;;;;4984331;28;25057;-76
2023/04/24 03:51:30;;;;;;;6.38;3.78;;;;;;;;;;4978022;28;25050;-75
2023/04/24 03:53:56;;;;;;;6.95;3.05;;;;;;;;;;4976226;28;25070;-73
2023/04/24 03:56:22;;;;;;;3.47;2.53;;;;;;;;;;4974882;28;25075;-75
2023/04/24 03:58:48;;;;;;;3.08;2.20;;;;;;;;;;4996620;28;25056;-74
2023/04/24 04:01:15;;;;;;;5.63;2.15;;;;;;;;;;4979753;28;25141;-76
2023/04/24 04:03:41;;;;;;;5.15;2.67;;;;;;;;;;4974805;28;25076;-74
2023/04/24 04:06:07;;;;;;;4.72;2.67;;;;;;;;;;4980492;28;25098;-74
2023/04/24 04:08:34;;;;;;;6.20;2.75;;;;;;;;;;4989085;28;25075;-75
2023/04/24 04:11:00;;;;;;;4.18;2.95;;;;;;;;;;4980540;28;25081;-75
2023/04/24 04:13:26;;;;;;;9.43;2.92;;;;;;;;;;4979379;28;25068;-77
2023/04/24 04:15:53;;;;;;;7.38;3.70;;;;;;;;;;4990376;28;25051;-74
2023/04/24 04:18:19;;;;;;;9.38;3.38;;;;;;;;;;4968526;28;25086;-75
2023/04/24 04:20:45;;;;;;;8.95;4.18;;;;;;;;;;4971220;28;25144;-74
2023/04/24 04:23:11;;;;;;;6.22;3.45;;;;;;;;;;4981589;28;25456;-75
2023/04/24 04:25:37;;;;;;;7.35;3.33;;;;;;;;;;4968043;28;25129;-74
2023/04/24 04:28:03;;;;;;;5.45;2.50;;;;;;;;;;4972845;28;25097;-73
2023/04/24 04:30:32;;;;;;;5.28;3.45;;;;;;;;;;4971238;28;25050;-73
2023/04/24 04:32:58;;;;;;;5.32;4.38;;;;;;;;;;4974333;28;25063;-74
2023/04/24 04:35:24;;;;;;;7.43;4.22;;;;;;;;;;4968811;28;25113;-75
2023/04/24 04:37:51;;;;;;;6.13;3.45;;;;;;;;;;4970085;28;25080;-74
2023/04/24 04:40:17;;;;;;;6.53;3.95;;;;;;;;;;4970212;28;25110;-77
2023/04/24 04:42:45;;;;;;;4.15;3.30;;;;;;;;;;4975028;28;25060;-77
2023/04/24 04:45:12;;;;;;;5.60;4.05;;;;;;;;;;4974022;28;25097;-75
2023/04/24 04:47:39;;;;;;;8.55;3.47;;;;;;;;;;4974612;28;25201;-75
2023/04/24 04:50:05;;;;;;;8.65;4.53;;;;;;;;;;4971207;28;25123;-75
2023/04/24 04:52:31;;;;;;;6.82;4.03;;;;;;;;;;4972461;28;25088;-75
2023/04/24 04:54:57;;;;;;;6.65;4.32;;;;;;;;;;4973733;28;25056;-75
2023/04/24 04:57:23;;;;;;;7.35;5.13;;;;;;;;;;4971746;28;25096;-76
2023/04/24 04:59:49;;;;;;;7.90;4.15;;;;;;;;;;4975114;28;25072;-74
2023/04/24 05:02:15;;;;;;;7.72;4.28;;;;;;;;;;4973210;28;25068;-75
2023/04/24 05:04:41;;;;;;;2.55;1.70;;;;;;;;;;4974172;28;25062;-76
2023/04/24 05:07:07;;;;;;;5.63;2.10;;;;;;;;;;4974062;28;25068;-75
2023/04/24 05:09:33;;;;;;;5.13;2.22;;;;;;;;;;4978405;28;25199;-75
2023/04/24 05:12:00;;;;;;;4.57;2.20;;;;;;;;;;4972074;28;25089;-76
2023/04/24 05:14:26;;;;;;;6.43;2.15;;;;;;;;;;4977820;28;25100;-72
2023/04/24 05:16:52;;;;;;;1.90;1.63;;;;;;;;;;4973440;28;25106;-70
2023/04/24 05:19:18;;;;;;;3.47;2.10;;;;;;;;;;4978290;28;25074;-70
2023/04/24 05:21:45;;;;;;;4.30;2.13;;;;;;;;;;4975270;28;25071;-75
2023/04/24 05:24:11;;;;;;;5.03;3.25;;;;;;;;;;4976247;28;25061;-73
2023/04/24 05:26:37;;;;;;;9.07;4.63;;;;;;;;;;4972532;28;25151;-75
2023/04/24 05:29:03;;;;;;;10.60;5.00;;;;;;;;;;4974511;28;25105;-73
2023/04/24 05:31:30;;;;;;;11.40;5.80;;;;;;;;;;4974617;28;25079;-74
2023/04/24 05:33:57;;;;;;;12.05;5.68;;;;;;;;;;4975391;28;25052;-74
2023/04/24 05:36:23;;;;;;;10.13;5.95;;;;;;;;;;4971662;28;25053;-75
2023/04/24 05:38:50;;;;;;;15.23;7.20;;;;;;;;;;4973772;28;25059;-76
2023/04/24 05:41:16;;;;;;;15.85;7.60;;;;;;;;;;4973545;28;25069;-75
2023/04/24 05:43:42;;;;;;;19.42;6.90;;;;;;;;;;4975160;28;25076;-76
2023/04/24 05:46:08;;;;;;;18.27;7.53;;;;;;;;;;4982353;28;25081;-76
2023/04/24 05:48:34;;;;;;;13.88;7.53;;;;;;;;;;4980629;28;25435;-78
2023/04/24 05:51:00;;;;;;;16.25;7.75;;;;;;;;;;4985498;28;25064;-76
2023/04/24 05:53:26;;;;;;;15.93;8.88;;;;;;;;;;4984732;28;25074;-75
2023/04/24 05:55:52;;;;;;;17.27;9.43;;;;;;;;;;4989070;28;25057;-72
2023/04/24 05:58:18;;;;;;;20.88;10.18;;;;;;;;;;4980191;28;25081;-76
2023/04/24 06:00:46;;;;;;;24.90;9.82;;;;;;;;;;4975106;28;25093;-74
2023/04/24 06:03:12;;;;;;;21.10;11.00;;;;;;;;;;4970338;28;25058;-78
2023/04/24 06:05:38;;;;;;;27.20;10.70;;;;;;;;;;4977888;28;25086;-74
2023/04/24 06:08:04;;;;;;;22.60;13.23;;;;;;;;;;4976922;28;25092;-78
2023/04/24 06:10:30;;;;;;;29.08;12.15;;;;;;;;;;4980181;28;25071;-77
2023/04/24 06:12:59;;;;;;;20.75;10.35;;;;;;;;;;4974915;28;25107;-73
2023/04/24 06:15:26;;;;;;;25.88;11.85;;;;;;;;;;4975616;28;25080;-76
2023/04/24 06:17:52;;;;;;;25.75;10.93;;;;;;;;;;4973446;28;25065;-75
2023/04/24 06:20:17;;;;;;;26.90;11.20;;;;;;;;;;4981252;28;25059;-77
2023/04/24 06:22:43;;;;;;;23.20;11.15;;;;;;;;;;4979412;28;25070;-76
2023/04/24 06:25:09;;;;;;;25.15;10.60;;;;;;;;;;4980522;28;25071;-77
2023/04/24 06:27:35;;;;;;;28.13;11.73;;;;;;;;;;4989648;28;25362;-77
2023/04/24 06:30:02;;;;;;;18.10;8.57;;;;;;;;;;4986874;28;25082;-76
2023/04/24 06:32:28;;;;;;;21.58;10.10;;;;;;;;;;4978378;28;25080;-76
2023/04/24 06:34:54;;;;;;;29.33;9.57;;;;;;;;;;4980717;28;25095;-74
2023/04/24 06:37:23;;;;;;;21.48;9.93;;;;;;;;;;4997957;28;25091;-74
2023/04/24 06:39:49;;;;;;;22.50;7.97;;;;;;;;;;4969398;28;25047;-73
2023/04/24 06:42:15;;;;;;;16.25;6.80;;;;;;;;;;4975984;28;25087;-71
2023/04/24 06:44:41;;;;;;;27.77;7.72;;;;;;;;;;4977047;28;25048;-77
2023/04/24 06:47:08;;;;;;;24.08;6.40;;;;;;;;;;4977664;28;25064;-75
2023/04/24 06:49:35;;;;;;;24.05;7.07;;;;;;;;;;4981652;28;25068;-75
2023/04/24 06:52:01;;;;;;;15.73;5.50;;;;;;;;;;4982861;28;25069;-76
2023/04/24 06:54:27;;;;;;;17.45;5.82;;;;;;;;;;4975116;28;25067;-70
2023/04/24 06:56:53;;;;;;;23.15;6.97;;;;;;;;;;4972278;28;25113;-75
2023/04/24 06:59:19;;;;;;;16.52;5.82;;;;;;;;;;4981712;28;25104;-75
2023/04/24 07:01:45;;;;;;;22.13;6.80;;;;;;;;;;4978806;28;25069;-75
2023/04/24 07:04:12;;;;;;;29.48;6.05;;;;;;;;;;4981917;28;25061;-73
2023/04/24 07:06:39;;;;;;;22.70;6.20;;;;;;;;;;4974272;28;25084;-77
2023/04/24 07:09:05;;;;;;;31.13;6.57;;;;;;;;;;4977288;28;25058;-74
2023/04/24 07:11:32;;;;;;;26.85;7.72;;;;;;;;;;4980062;28;25146;-75
2023/04/24 07:13:58;;;;;;;21.42;6.75;;;;;;;;;;4976277;28;25065;-76
2023/04/24 07:16:25;;;;;;;22.10;6.57;;;;;;;;;;4978864;28;25075;-74
2023/04/24 07:18:51;;;;;;;20.85;6.38;;;;;;;;;;4984771;28;25072;-73
2023/04/24 07:21:17;;;;;;;17.40;5.43;;;;;;;;;;4981659;28;25059;-74
2023/04/24 07:23:43;;;;;;;28.83;8.63;;;;;;;;;;4978716;28;25095;-77
2023/04/24 07:26:09;;;;;;;18.83;4.90;;;;;;;;;;4979872;28;25080;-72
2023/04/24 07:28:35;;;;;;;28.80;5.20;;;;;;;;;;4977718;28;25072;-74
2023/04/24 07:31:01;;;;;;;17.48;6.05;;;;;;;;;;4993388;28;25066;-74
2023/04/24 07:33:27;;;;;;;23.33;6.68;;;;;;;;;;4976027;28;25066;-76
2023/04/24 07:35:53;;;;;;;27.00;5.00;;;;;;;;;;4978440;28;25082;-76
2023/04/24 07:38:22;;;;;;;22.17;4.93;;;;;;;;;;4982438;28;25084;-76
2023/04/24 07:40:49;;;;;;;21.00;5.15;;;;;;;;;;4973673;28;25070;-76
2023/04/24 07:43:15;;;;;;;20.92;4.43;;;;;;;;;;4976574;28;25079;-76
2023/04/24 07:45:41;;;;;;;20.17;4.70;;;;;;;;;;4992771;28;25094;-76
2023/04/24 07:48:08;;;;;;;30.30;4.95;;;;;;;;;;4987001;28;25059;-74
2023/04/24 07:50:36;;;;;;;22.80;4.70;;;;;;;;;;4978516;28;25060;-75
2023/04/24 07:53:02;;;;;;;29.70;4.38;;;;;;;;;;4986086;28;25107;-76
2023/04/24 07:55:28;;;;;;;17.30;3.45;;;;;;;;;;4996400;28;25069;-73
2023/04/24 07:57:54;;;;;;;17.65;3.88;;;;;;;;;;4995922;28;25069;-72
2023/04/24 08:00:20;;;;;;;14.65;2.90;;;;;;;;;;4987962;28;25108;-74
2023/04/24 08:02:46;;;;;;;16.15;4.72;;;;;;;;;;4972230;28;25067;-74
2023/04/24 08:05:12;;;;;;;23.50;3.83;;;;;;;;;;4993407;28;25156;-73
2023/04/24 08:07:38;;;;;;;13.70;3.35;;;;;;;;;;4986486;28;25054;-71
2023/04/24 08:10:05;;;;;;;19.33;4.25;;;;;;;;;;4992697;28;25061;-71
2023/04/24 08:12:31;;;;;;;22.90;4.05;;;;;;;;;;4998207;28;25062;-75
2023/04/24 08:14:57;;;;;;;8.75;3.15;;;;;;;;;;5005165;28;25067;-73
2023/04/24 08:17:25;;;;;;;12.85;3.25;;;;;;;;;;4981467;28;25082;-73
2023/04/24 08:19:53;;;;;;;10.30;3.75;;;;;;;;;;4974117;28;25147;-71
2023/04/24 08:22:21;;;;;;;9.82;3.47;;;;;;;;;;4974395;28;25161;-73
2023/04/24 08:24:47;;;;;;;18.30;2.97;;;;;;;;;;4976363;28;25077;-76
2023/04/24 08:27:13;;;;;;;15.43;3.17;;;;;;;;;;4970368;28;25059;-72
2023/04/24 08:29:39;;;;;;;12.45;2.95;;;;;;;;;;4974044;28;25072;-76
2023/04/24 08:32:06;;;;;;;21.20;3.55;;;;;;;;;;4976683;28;25063;-76
2023/04/24 08:34:32;;;;;;;20.42;3.00;;;;;;;;;;4986956;28;25068;-73
2023/04/24 08:36:58;;;;;;;17.30;5.53;;;;;;;;;;4977389;28;25054;-74
2023/04/24 08:39:24;;;;;;;14.82;2.72;;;;;;;;;;4979142;28;25076;-72
2023/04/24 08:41:51;;;;;;;11.77;3.05;;;;;;;;;;4975093;28;25142;-72
2023/04/24 08:44:17;;;;;;;15.77;3.28;;;;;;;;;;4978578;28;25140;-74
2023/04/24 08:46:47;;;;;;;8.90;2.60;;;;;;;;;;4974001;28;25073;-76
2023/04/24 08:49:16;;;;;;;9.02;2.55;;;;;;;;;;4974125;28;25057;-71
2023/04/24 08:51:42;;;;;;;11.18;2.45;;;;;;;;;;4968973;28;25059;-74
2023/04/24 08:54:08;;;;;;;9.15;2.10;;;;;;;;;;4975353;28;25069;-76
2023/04/24 08:56:40;;;;;;;7.43;2.42;;;;;;;;;;4972936;28;25060;-75
2023/04/24 08:59:06;;;;;;;11.23;2.40;;;;;;;;;;4968820;28;25055;-75
2023/04/24 09:01:33;;;;;;;9.77;2.65;;;;;;;;;;4970606;28;25067;-73
2023/04/24 09:04:02;;;;;;;7.82;1.77;;;;;;;;;;4975673;28;25074;-72
2023/04/24 09:06:28;;;;;;;11.13;2.00;;;;;;;;;;4973782;28;25129;-76
2023/04/24 09:08:56;;;;;;;8.77;1.95;;;;;;;;;;4982767;28;25052;-76
2023/04/24 09:11:24;;;;;;;10.25;2.28;;;;;;;;;;4975256;28;25081;-72
2023/04/24 09:13:51;;;;;;;6.28;1.95;;;;;;;;;;4969066;28;25055;-72
2023/04/24 09:16:17;;;;;;;7.55;4.05;;;;;;;;;;4972518;28;25102;-76
2023/04/24 09:18:43;;;;;;;7.13;1.70;;;;;;;;;;4979596;28;25081;-77
2023/04/24 09:21:10;;;;;;;5.13;2.08;;;;;;;;;;4982724;28;25075;-75
2023/04/24 09:23:36;;;;;;;6.90;2.47;;;;;;;;;;4978558;28;25093;-74
2023/04/24 09:26:04;;;;;;;7.65;2.30;;;;;;;;;;4972337;28;25130;-72
2023/04/24 09:28:35;;;;;;;7.43;2.20;;;;;;;;;;4972669;28;25051;-73
2023/04/24 09:31:05;;;;;;;6.55;1.38;;;;;;;;;;4974999;28;25059;-73
2023/04/24 09:33:31;;;;;;;4.72;1.02;;;;;;;;;;4971724;28;25060;-76
2023/04/24 09:35:58;;;;;;;8.25;1.30;;;;;;;;;;4968210;28;25083;-75
2023/04/24 09:38:31;;;;;;;8.68;1.02;;;;;;;;;;4977450;28;25076;-73
2023/04/24 09:41:00;;;;;;;1.83;0.70;;;;;;;;;;4966668;28;25118;-72
2023/04/24 09:43:26;;;;;;;4.75;0.90;;;;;;;;;;4972495;28;25071;-77
2023/04/24 09:45:55;;;;;;;5.20;1.02;;;;;;;;;;4978407;28;25099;-74
2023/04/24 09:48:30;;;;;;;3.45;0.80;;;;;;;;;;4983212;28;25063;-77
2023/04/24 09:50:56;;;;;;;3.35;0.90;;;;;;;;;;4980470;28;25063;-73
2023/04/24 09:53:26;;;;;;;2.53;0.75;;;;;;;;;;4980726;28;25059;-76
2023/04/24 09:55:52;;;;;;;1.90;0.70;;;;;;;;;;4965681;28;25088;-73
2023/04/24 09:58:22;;;;;;;5.85;1.15;;;;;;;;;;4979452;28;25052;-75
2023/04/24 10:00:48;;;;;;;5.00;0.73;;;;;;;;;;4988229;28;25053;-75
2023/04/24 10:03:14;;;;;;;4.50;0.82;;;;;;;;;;4974550;28;25075;-75
2023/04/24 10:05:40;;;;;;;3.65;1.13;;;;;;;;;;4980806;28;25104;-75
2023/04/24 10:08:07;;;;;;;2.13;0.60;;;;;;;;;;4978527;28;25058;-75
2023/04/24 10:10:35;;;;;;;6.47;1.20;;;;;;;;;;4982195;28;25059;-76
2023/04/24 10:13:01;;;;;;;5.00;0.63;;;;;;;;;;4981961;28;25058;-75
2023/04/24 10:15:27;;;;;;;2.70;0.77;;;;;;;;;;4968669;28;25052;-72
2023/04/24 10:17:54;;;;;;;1.20;0.73;;;;;;;;;;4979171;28;25057;-77
2023/04/24 10:20:20;;;;;;;4.05;1.10;;;;;;;;;;4987003;28;25076;-75
2023/04/24 10:22:49;;;;;;;5.38;1.65;;;;;;;;;;4980155;28;25055;-76
2023/04/24 10:25:17;;;;;;;2.60;0.98;;;;;;;;;;4977276;28;25181;-73
2023/04/24 10:27:43;;;;;;;4.57;1.08;;;;;;;;;;4995813;28;25074;-74
2023/04/24 10:30:11;;;;;;;1.83;0.88;;;;;;;;;;4975770;28;25057;-72
2023/04/24 10:32:39;;;;;;;4.20;0.90;;;;;;;;;;4979081;28;25107;-74
2023/04/24 10:35:06;;;;;;;5.65;1.10;;;;;;;;;;4984208;28;25071;-75
2023/04/24 10:37:37;;;;;;;4.82;0.90;;;;;;;;;;4981414;28;25335;-76
2023/04/24 10:40:03;;;;;;;11.50;1.50;;;;;;;;;;4978043;28;25070;-75
2023/04/24 10:42:29;;;;;;;5.88;1.13;;;;;;;;;;4979690;28;25055;-76
2023/04/24 10:44:57;;;;;;;3.92;0.77;;;;;;;;;;4981315;28;25148;-76
2023/04/24 10:47:25;;;;;;;5.45;1.17;;;;;;;;;;4997175;28;25060;-76
2023/04/24 10:49:51;;;;;;;5.40;1.10;;;;;;;;;;4978426;28;25060;-74
2023/04/24 10:52:17;;;;;;;8.90;1.30;;;;;;;;;;4975752;28;25059;-74
2023/04/24 10:54:47;;;;;;;11.38;1.38;;;;;;;;;;4975117;28;25147;-75
2023/04/24 10:57:22;;;;;;;8.85;1.33;;;;;;;;;;4977767;28;25071;-73
2023/04/24 10:59:49;;;;;;;4.35;1.17;;;;;;;;;;4978373;28;25102;-76
2023/04/24 11:02:15;;;;;;;4.22;2.55;;;;;;;;;;4978950;28;25105;-75
2023/04/24 11:04:44;;;;;;;2.70;0.95;;;;;;;;;;4979742;28;25129;-75
2023/04/24 11:07:11;;;;;;;8.40;1.42;;;;;;;;;;4979582;28;25103;-74
2023/04/24 11:09:40;;;;;;;3.17;2.05;;;;;;;;;;4978775;28;25073;-75
2023/04/24 11:12:08;;;;;;;10.05;2.00;;;;;;;;;;4973717;28;25073;-73
2023/04/24 11:14:53;;;;;;;5.68;1.27;;;;;;;;;;4978139;28;25071;-76
2023/04/24 11:17:28;;;;;;;7.22;1.65;;;;;;;;;;4976073;28;25079;-75
2023/04/24 11:20:01;;;;;;;2.92;1.08;;;;;;;;;;4976580;28;25057;-73
2023/04/24 11:22:29;;;;;;;5.32;1.27;;;;;;;;;;4974539;28;25090;-73
2023/04/24 11:24:55;;;;;;;8.10;1.50;;;;;;;;;;4979938;28;25052;-77
2023/04/24 11:27:22;;;;;;;3.35;1.38;;;;;;;;;;4976619;28;25050;-73
2023/04/24 11:29:48;;;;;;;2.30;0.93;;;;;;;;;;4971654;28;25133;-75
2023/04/24 11:32:19;;;;;;;3.83;0.70;;;;;;;;;;4972450;28;25058;-76
2023/04/24 11:34:46;;;;;;;4.28;0.90;;;;;;;;;;4984283;28;25069;-78
2023/04/24 11:37:13;;;;;;;5.00;1.20;;;;;;;;;;4964708;28;25047;-71
2023/04/24 11:39:38;;;;;;;7.07;1.23;;;;;;;;;;4969590;28;25079;-74
2023/04/24 11:42:06;;;;;;;3.75;0.98;;;;;;;;;;4966669;28;25061;-74
2023/04/24 11:44:34;;;;;;;6.95;1.20;;;;;;;;;;4960423;28;25071;-76
2023/04/24 11:47:00;;;;;;;7.07;1.42;;;;;;;;;;4963287;28;25094;-74
2023/04/24 11:49:26;;;;;;;1.88;1.00;;;;;;;;;;4967651;28;25086;-75
2023/04/24 11:51:55;;;;;;;5.55;1.20;;;;;;;;;;4968875;28;25132;-77
2023/04/24 11:54:21;;;;;;;5.18;1.38;;;;;;;;;;4971959;28;25065;-76
2023/04/24 11:56:48;;;;;;;6.55;1.67;;;;;;;;;;4975287;28;25078;-77
2023/04/24 11:59:14;;;;;;;6.03;1.48;;;;;;;;;;4966299;28;25138;-73
2023/04/24 12:01:44;;;;;;;4.07;1.08;;;;;;;;;;4967101;28;25075;-74
2023/04/24 12:04:10;;;;;;;18.35;1.88;;;;;;;;;;4978156;28;25126;-74
2023/04/24 12:06:36;;;;;;;4.70;1.42;;;;;;;;;;4967901;28;25169;-77
2023/04/24 12:09:02;;;;;;;7.43;1.65;;;;;;;;;;4967546;28;25134;-75
2023/04/24 12:11:28;;;;;;;6.22;1.50;;;;;;;;;;4981707;28;25131;-76
2023/04/24 12:13:54;;;;;;;6.03;1.80;;;;;;;;;;4968053;28;25086;-76
2023/04/24 12:16:20;;;;;;;7.10;1.25;;;;;;;;;;4964886;28;25070;-76
2023/04/24 12:18:46;;;;;;;8.57;2.33;;;;;;;;;;4966157;28;25072;-74
2023/04/24 12:21:20;;;;;;;7.60;1.77;;;;;;;;;;4966654;28;25139;-77
2023/04/24 12:23:46;;;;;;;2.08;1.15;;;;;;;;;;4966981;28;25060;-75
2023/04/24 12:26:12;;;;;;;9.65;1.90;;;;;;;;;;4964818;28;25065;-74
2023/04/24 12:28:39;;;;;;;5.15;1.92;;;;;;;;;;4966642;28;25062;-73
2023/04/24 12:31:06;;;;;;;9.50;1.67;;;;;;;;;;4967645;28;25099;-71
2023/04/24 12:33:36;;;;;;;9.13;1.58;;;;;;;;;;4982031;28;25126;-76
2023/04/24 12:36:02;;;;;;;14.15;1.60;;;;;;;;;;4967217;28;25075;-75
2023/04/24 12:38:39;;;;;;;8.82;1.73;;;;;;;;;;4959547;28;25069;-75
2023/04/24 12:41:06;;;;;;;4.03;1.40;;;;;;;;;;4964755;28;25056;-76
2023/04/24 12:43:32;;;;;;;6.78;1.50;;;;;;;;;;4972059;28;25062;-75
2023/04/24 12:45:59;;;;;;;5.05;2.13;;;;;;;;;;4968881;28;25058;-72
2023/04/24 12:48:25;;;;;;;9.55;2.05;;;;;;;;;;4968482;28;25048;-75
2023/04/24 12:50:51;;;;;;;3.67;1.25;;;;;;;;;;4977419;28;25060;-75
2023/04/24 12:53:17;;;;;;;10.10;1.92;;;;;;;;;;4965493;28;25105;-76
2023/04/24 12:55:44;;;;;;;10.70;1.48;;;;;;;;;;4967057;28;25081;-75
2023/04/24 12:58:10;;;;;;;3.28;1.50;;;;;;;;;;4966424;28;25166;-77
2023/04/24 13:00:37;;;;;;;7.07;1.90;;;;;;;;;;4970392;28;25104;-77
2023/04/24 13:03:03;;;;;;;8.93;2.42;;;;;;;;;;4969288;28;25304;-78
2023/04/24 13:05:29;;;;;;;7.72;4.13;;;;;;;;;;4966879;28;25091;-76
2023/04/24 13:07:55;;;;;;;5.72;1.50;;;;;;;;;;4969822;28;25080;-75
2023/04/24 13:10:21;;;;;;;10.57;2.00;;;;;;;;;;4956955;28;25062;-74
2023/04/24 13:12:47;;;;;;;4.63;1.65;;;;;;;;;;4962204;28;25079;-74
2023/04/24 13:15:13;;;;;;;10.90;1.92;;;;;;;;;;4969111;28;25069;-75
2023/04/24 13:17:39;;;;;;;5.47;2.30;;;;;;;;;;4965117;28;25122;-77
2023/04/24 13:20:06;;;;;;;9.45;2.10;;;;;;;;;;4965924;28;25050;-75
2023/04/24 13:22:32;;;;;;;8.07;2.10;;;;;;;;;;4967690;28;25069;-76
2023/04/24 13:24:58;;;;;;;6.82;1.90;;;;;;;;;;4968183;28;25087;-75
2023/04/24 13:27:24;;;;;;;15.77;2.83;;;;;;;;;;4972839;28;25117;-76
2023/04/24 13:29:51;;;;;;;12.65;2.72;;;;;;;;;;4973057;28;25164;-73
2023/04/24 13:32:17;;;;;;;11.63;2.50;;;;;;;;;;4966788;28;25097;-75
2023/04/24 13:34:43;;;;;;;8.63;2.40;;;;;;;;;;4964979;28;25143;-76
2023/04/24 13:37:09;;;;;;;17.40;2.15;;;;;;;;;;4973196;28;25146;-76
2023/04/24 13:39:35;;;;;;;6.28;3.00;;;;;;;;;;4974424;28;25061;-77
2023/04/24 13:42:01;;;;;;;11.23;2.88;;;;;;;;;;4971585;28;25132;-77
2023/04/24 13:44:27;;;;;;;15.05;3.13;;;;;;;;;;4969191;28;25060;-73
2023/04/24 13:46:56;;;;;;;10.07;2.38;;;;;;;;;;4977032;28;25082;-76
2023/04/24 13:49:22;;;;;;;14.98;4.20;;;;;;;;;;4982539;28;25100;-77
2023/04/24 13:51:48;;;;;;;15.68;3.95;;;;;;;;;;4971011;28;25101;-73
2023/04/24 13:54:14;;;;;;;7.95;2.72;;;;;;;;;;4983485;28;25070;-76
2023/04/24 13:56:40;;;;;;;8.95;2.38;;;;;;;;;;4971008;28;25071;-76
2023/04/24 13:59:07;;;;;;;13.77;2.55;;;;;;;;;;4971841;28;25066;-77
2023/04/24 14:01:33;;;;;;;11.57;2.83;;;;;;;;;;4979414;28;25150;-75
2023/04/24 14:03:59;;;;;;;6.75;2.67;;;;;;;;;;4967051;28;25062;-77
2023/04/24 14:06:25;;;;;;;8.70;2.65;;;;;;;;;;4967448;28;25104;-77
2023/04/24 14:08:52;;;;;;;8.35;2.83;;;;;;;;;;4966129;28;25054;-76
2023/04/24 14:11:18;;;;;;;9.35;3.97;;;;;;;;;;4977171;28;25069;-75
2023/04/24 14:13:45;;;;;;;10.25;2.83;;;;;;;;;;4987414;28;25069;-77
2023/04/24 14:16:11;;;;;;;14.30;3.17;;;;;;;;;;4992021;28;25071;-76
2023/04/24 14:18:37;;;;;;;10.07;3.20;;;;;;;;;;4974529;28;25075;-74
2023/04/24 14:21:06;;;;;;;12.55;3.88;;;;;;;;;;4977872;28;25133;-76
2023/04/24 14:23:32;;;;;;;11.27;2.92;;;;;;;;;;4967610;28;25065;-78
2023/04/24 14:25:58;;;;;;;10.02;3.58;;;;;;;;;;4968511;28;25071;-77
2023/04/24 14:28:25;;;;;;;13.95;3.13;;;;;;;;;;4968961;28;25077;-73
2023/04/24 14:30:51;;;;;;;8.38;3.65;;;;;;;;;;4969737;28;25124;-72
2023/04/24 14:33:17;;;;;;;8.73;2.20;;;;;;;;;;4964698;28;25080;-72